sensor_id;sensor_type;location;lat;lon;timestamp;temperature;humidity
40738;DHT22;54759;48.094;-1.628;2023-05-07T00:02:35;22.90;65.50
40738;DHT22;54759;48.094;-1.628;2023-05-07T00:05:38;22.90;65.50
40738;DHT22;54759;48.094;-1.628;2023-05-07T00:08:40;22.30;65.20
40738;DHT22;54759;48.094;-1.628;2023-05-07T00:11:42;22.90;65.40
40738;DHT22;54759;48.094;-1.628;2023-05-07T00:14:44;22.80;65.60
40738;DHT22;54759;48.094;-1.628;2023-05-07T00:17:49;22.70;65.40
40738;DHT22;54759;48.094;-1.628;2023-05-07T00:20:51;22.80;65.50
40738;DHT22;54759;48.094;-1.628;2023-05-07T00:23:54;22.80;65.50
40738;DHT22;54759;48.094;-1.628;2023-05-07T00:26:55;22.90;65.60
40738;DHT22;54759;48.094;-1.628;2023-05-07T00:29:59;22.30;65.10
40738;DHT22;54759;48.094;-1.628;2023-05-07T00:33:01;22.80;65.40
40738;DHT22;54759;48.094;-1.628;2023-05-07T00:36:02;22.70;65.50
40738;DHT22;54759;48.094;-1.628;2023-05-07T00:39:04;22.90;65.50
40738;DHT22;54759;48.094;-1.628;2023-05-07T00:42:06;22.90;65.50
40738;DHT22;54759;48.094;-1.628;2023-05-07T00:45:08;22.70;65.60
40738;DHT22;54759;48.094;-1.628;2023-05-07T00:48:11;22.90;65.40
40738;DHT22;54759;48.094;-1.628;2023-05-07T00:51:13;22.70;65.40
40738;DHT22;54759;48.094;-1.628;2023-05-07T00:54:15;22.30;65.90
40738;DHT22;54759;48.094;-1.628;2023-05-07T00:57:17;22.80;65.60
40738;DHT22;54759;48.094;-1.628;2023-05-07T01:00:19;22.70;65.60
40738;DHT22;54759;48.094;-1.628;2023-05-07T01:03:21;22.80;65.40
40738;DHT22;54759;48.094;-1.628;2023-05-07T01:06:23;22.70;65.50
40738;DHT22;54759;48.094;-1.628;2023-05-07T01:09:28;22.40;65.10
40738;DHT22;54759;48.094;-1.628;2023-05-07T01:12:31;22.70;65.20
40738;DHT22;54759;48.094;-1.628;2023-05-07T01:15:33;22.70;65.30
40738;DHT22;54759;48.094;-1.628;2023-05-07T01:18:35;22.30;65.30
40738;DHT22;54759;48.094;-1.628;2023-05-07T01:21:38;22.80;65.50
40738;DHT22;54759;48.094;-1.628;2023-05-07T01:24:43;22.80;63.60
40738;DHT22;54759;48.094;-1.628;2023-05-07T01:27:46;22.80;65.50
40738;DHT22;54759;48.094;-1.628;2023-05-07T01:30:55;22.70;65.50
40738;DHT22;54759;48.094;-1.628;2023-05-07T01:33:59;22.80;65.40
40738;DHT22;54759;48.094;-1.628;2023-05-07T01:37:01;22.80;65.20
40738;DHT22;54759;48.094;-1.628;2023-05-07T01:40:05;22.70;65.30
40738;DHT22;54759;48.094;-1.628;2023-05-07T01:43:08;22.70;65.00
40738;DHT22;54759;48.094;-1.628;2023-05-07T01:46:12;22.70;65.20
40738;DHT22;54759;48.094;-1.628;2023-05-07T01:49:15;22.30;64.50
40738;DHT22;54759;48.094;-1.628;2023-05-07T01:52:17;22.30;65.00
40738;DHT22;54759;48.094;-1.628;2023-05-07T01:55:19;22.80;65.40
40738;DHT22;54759;48.094;-1.628;2023-05-07T01:58:21;22.70;65.20
40738;DHT22;54759;48.094;-1.628;2023-05-07T02:01:25;22.60;65.20
40738;DHT22;54759;48.094;-1.628;2023-05-07T02:04:26;22.70;65.20
40738;DHT22;54759;48.094;-1.628;2023-05-07T02:07:28;22.70;65.20
40738;DHT22;54759;48.094;-1.628;2023-05-07T02:10:30;22.60;65.00
40738;DHT22;54759;48.094;-1.628;2023-05-07T02:13:33;22.60;65.00
40738;DHT22;54759;48.094;-1.628;2023-05-07T02:16:35;22.70;65.10
40738;DHT22;54759;48.094;-1.628;2023-05-07T02:19:37;22.60;64.90
40738;DHT22;54759;48.094;-1.628;2023-05-07T02:22:38;22.60;65.10
40738;DHT22;54759;48.094;-1.628;2023-05-07T02:25:41;22.60;65.30
40738;DHT22;54759;48.094;-1.628;2023-05-07T02:28:42;22.60;65.00
40738;DHT22;54759;48.094;-1.628;2023-05-07T02:31:44;22.60;65.20
40738;DHT22;54759;48.094;-1.628;2023-05-07T02:34:46;22.50;65.10
40738;DHT22;54759;48.094;-1.628;2023-05-07T02:37:49;22.60;65.10
40738;DHT22;54759;48.094;-1.628;2023-05-07T02:40:51;22.60;65.00
40738;DHT22;54759;48.094;-1.628;2023-05-07T02:43:53;22.60;64.90
40738;DHT22;54759;48.094;-1.628;2023-05-07T02:46:54;22.60;65.10
40738;DHT22;54759;48.094;-1.628;2023-05-07T02:49:56;22.60;65.10
40738;DHT22;54759;48.094;-1.628;2023-05-07T02:52:58;22.10;64.90
40738;DHT22;54759;48.094;-1.628;2023-05-07T02:56:01;22.60;65.20
40738;DHT22;54759;48.094;-1.628;2023-05-07T02:59:05;22.30;64.90
40738;DHT22;54759;48.094;-1.628;2023-05-07T03:02:11;22.50;62.30
40738;DHT22;54759;48.094;-1.628;2023-05-07T03:05:13;22.50;65.30
40738;DHT22;54759;48.094;-1.628;2023-05-07T03:08:15;22.40;65.20
40738;DHT22;54759;48.094;-1.628;2023-05-07T03:11:17;22.60;65.60
40738;DHT22;54759;48.094;-1.628;2023-05-07T03:14:19;21.70;93.70
40738;DHT22;54759;48.094;-1.628;2023-05-07T03:17:21;22.50;67.10
40738;DHT22;54759;48.094;-1.628;2023-05-07T03:20:26;22.50;66.50
40738;DHT22;54759;48.094;-1.628;2023-05-07T03:23:28;22.00;65.70
40738;DHT22;54759;48.094;-1.628;2023-05-07T03:26:32;22.60;66.50
40738;DHT22;54759;48.094;-1.628;2023-05-07T03:29:34;22.20;65.60
40738;DHT22;54759;48.094;-1.628;2023-05-07T03:32:36;22.40;65.50
40738;DHT22;54759;48.094;-1.628;2023-05-07T03:35:41;22.40;66.00
40738;DHT22;54759;48.094;-1.628;2023-05-07T03:38:44;22.40;65.80
40738;DHT22;54759;48.094;-1.628;2023-05-07T03:41:46;22.50;65.50
40738;DHT22;54759;48.094;-1.628;2023-05-07T03:44:48;22.50;65.10
40738;DHT22;54759;48.094;-1.628;2023-05-07T03:47:50;22.50;65.40
40738;DHT22;54759;48.094;-1.628;2023-05-07T03:50:55;22.50;65.20
40738;DHT22;54759;48.094;-1.628;2023-05-07T03:53:57;22.50;65.30
40738;DHT22;54759;48.094;-1.628;2023-05-07T03:57:01;22.50;65.40
40738;DHT22;54759;48.094;-1.628;2023-05-07T04:00:03;22.50;65.40
40738;DHT22;54759;48.094;-1.628;2023-05-07T04:03:10;22.50;65.40
40738;DHT22;54759;48.094;-1.628;2023-05-07T04:06:12;22.40;65.40
40738;DHT22;54759;48.094;-1.628;2023-05-07T04:09:17;22.40;65.60
40738;DHT22;54759;48.094;-1.628;2023-05-07T04:12:24;22.40;65.40
40738;DHT22;54759;48.094;-1.628;2023-05-07T04:15:26;22.50;62.60
40738;DHT22;54759;48.094;-1.628;2023-05-07T04:18:27;22.30;65.40
40738;DHT22;54759;48.094;-1.628;2023-05-07T04:21:29;22.50;65.40
40738;DHT22;54759;48.094;-1.628;2023-05-07T04:24:32;21.90;65.20
40738;DHT22;54759;48.094;-1.628;2023-05-07T04:27:36;22.40;65.30
40738;DHT22;54759;48.094;-1.628;2023-05-07T04:30:39;22.50;65.30
40738;DHT22;54759;48.094;-1.628;2023-05-07T04:33:42;22.40;65.40
40738;DHT22;54759;48.094;-1.628;2023-05-07T04:36:47;22.50;65.50
40738;DHT22;54759;48.094;-1.628;2023-05-07T04:39:49;22.40;65.50
40738;DHT22;54759;48.094;-1.628;2023-05-07T04:42:52;22.40;65.70
40738;DHT22;54759;48.094;-1.628;2023-05-07T04:45:55;22.40;65.40
40738;DHT22;54759;48.094;-1.628;2023-05-07T04:48:59;22.60;65.60
40738;DHT22;54759;48.094;-1.628;2023-05-07T04:52:01;22.40;65.70
40738;DHT22;54759;48.094;-1.628;2023-05-07T04:55:03;22.40;65.70
40738;DHT22;54759;48.094;-1.628;2023-05-07T04:58:10;22.40;65.70
40738;DHT22;54759;48.094;-1.628;2023-05-07T05:01:13;22.30;65.60
40738;DHT22;54759;48.094;-1.628;2023-05-07T05:04:15;22.40;66.00
40738;DHT22;54759;48.094;-1.628;2023-05-07T05:07:19;22.40;65.90
40738;DHT22;54759;48.094;-1.628;2023-05-07T05:10:20;22.20;66.30
40738;DHT22;54759;48.094;-1.628;2023-05-07T05:13:27;22.00;66.00
40738;DHT22;54759;48.094;-1.628;2023-05-07T05:16:29;22.50;65.90
40738;DHT22;54759;48.094;-1.628;2023-05-07T05:19:31;22.50;66.00
40738;DHT22;54759;48.094;-1.628;2023-05-07T05:22:35;22.50;66.20
40738;DHT22;54759;48.094;-1.628;2023-05-07T05:25:37;22.60;66.10
40738;DHT22;54759;48.094;-1.628;2023-05-07T05:28:40;22.30;66.20
40738;DHT22;54759;48.094;-1.628;2023-05-07T05:31:42;22.40;66.10
40738;DHT22;54759;48.094;-1.628;2023-05-07T05:34:44;22.40;66.30
40738;DHT22;54759;48.094;-1.628;2023-05-07T05:37:46;22.40;66.30
40738;DHT22;54759;48.094;-1.628;2023-05-07T05:40:52;22.40;66.40
40738;DHT22;54759;48.094;-1.628;2023-05-07T05:43:58;22.40;66.50
40738;DHT22;54759;48.094;-1.628;2023-05-07T05:47:00;22.50;66.40
40738;DHT22;54759;48.094;-1.628;2023-05-07T05:50:04;22.30;66.30
40738;DHT22;54759;48.094;-1.628;2023-05-07T05:53:07;22.00;66.00
40738;DHT22;54759;48.094;-1.628;2023-05-07T05:56:09;22.40;66.50
40738;DHT22;54759;48.094;-1.628;2023-05-07T05:59:13;22.50;66.50
40738;DHT22;54759;48.094;-1.628;2023-05-07T06:02:14;22.40;66.40
40738;DHT22;54759;48.094;-1.628;2023-05-07T06:05:17;22.30;66.50
40738;DHT22;54759;48.094;-1.628;2023-05-07T06:08:19;22.40;66.50
40738;DHT22;54759;48.094;-1.628;2023-05-07T06:11:21;21.90;66.20
40738;DHT22;54759;48.094;-1.628;2023-05-07T06:14:23;22.40;66.50
40738;DHT22;54759;48.094;-1.628;2023-05-07T06:17:24;22.40;66.30
40738;DHT22;54759;48.094;-1.628;2023-05-07T06:20:26;22.40;66.30
40738;DHT22;54759;48.094;-1.628;2023-05-07T06:23:28;22.30;66.50
40738;DHT22;54759;48.094;-1.628;2023-05-07T06:26:34;22.40;66.50
40738;DHT22;54759;48.094;-1.628;2023-05-07T06:29:36;22.30;66.50
40738;DHT22;54759;48.094;-1.628;2023-05-07T06:32:46;22.20;66.50
40738;DHT22;54759;48.094;-1.628;2023-05-07T06:35:52;22.10;66.40
40738;DHT22;54759;48.094;-1.628;2023-05-07T06:38:54;22.40;66.60
40738;DHT22;54759;48.094;-1.628;2023-05-07T06:41:56;22.30;66.70
40738;DHT22;54759;48.094;-1.628;2023-05-07T06:45:03;22.50;66.70
40738;DHT22;54759;48.094;-1.628;2023-05-07T06:48:05;22.40;66.60
40738;DHT22;54759;48.094;-1.628;2023-05-07T06:51:15;22.30;66.80
40738;DHT22;54759;48.094;-1.628;2023-05-07T06:54:18;22.50;67.00
40738;DHT22;54759;48.094;-1.628;2023-05-07T06:57:21;22.40;66.90
40738;DHT22;54759;48.094;-1.628;2023-05-07T07:00:23;22.40;67.00
40738;DHT22;54759;48.094;-1.628;2023-05-07T07:03:28;22.10;66.70
40738;DHT22;54759;48.094;-1.628;2023-05-07T07:06:30;22.40;67.00
40738;DHT22;54759;48.094;-1.628;2023-05-07T07:09:34;22.30;66.80
40738;DHT22;54759;48.094;-1.628;2023-05-07T07:12:37;22.30;66.90
40738;DHT22;54759;48.094;-1.628;2023-05-07T07:15:41;22.40;66.90
40738;DHT22;54759;48.094;-1.628;2023-05-07T07:18:42;22.60;66.90
40738;DHT22;54759;48.094;-1.628;2023-05-07T07:21:44;22.50;67.10
40738;DHT22;54759;48.094;-1.628;2023-05-07T07:24:47;22.10;66.80
40738;DHT22;54759;48.094;-1.628;2023-05-07T07:27:51;22.40;67.00
40738;DHT22;54759;48.094;-1.628;2023-05-07T07:30:55;22.00;66.90
40738;DHT22;54759;48.094;-1.628;2023-05-07T07:33:57;22.40;67.00
40738;DHT22;54759;48.094;-1.628;2023-05-07T07:36:59;22.50;67.10
40738;DHT22;54759;48.094;-1.628;2023-05-07T07:40:08;22.50;67.30
40738;DHT22;54759;48.094;-1.628;2023-05-07T07:43:11;22.10;66.90
40738;DHT22;54759;48.094;-1.628;2023-05-07T07:46:13;22.50;67.30
40738;DHT22;54759;48.094;-1.628;2023-05-07T07:49:16;22.60;67.70
40738;DHT22;54759;48.094;-1.628;2023-05-07T07:52:18;22.60;67.30
40738;DHT22;54759;48.094;-1.628;2023-05-07T07:55:23;22.40;81.90
40738;DHT22;54759;48.094;-1.628;2023-05-07T07:58:26;22.20;67.60
40738;DHT22;54759;48.094;-1.628;2023-05-07T08:01:31;22.30;67.80
40738;DHT22;54759;48.094;-1.628;2023-05-07T08:04:34;21.90;67.20
40738;DHT22;54759;48.094;-1.628;2023-05-07T08:07:39;22.40;67.80
40738;DHT22;54759;48.094;-1.628;2023-05-07T08:10:40;22.40;67.80
40738;DHT22;54759;48.094;-1.628;2023-05-07T08:13:50;22.50;67.80
40738;DHT22;54759;48.094;-1.628;2023-05-07T08:16:52;22.50;67.30
40738;DHT22;54759;48.094;-1.628;2023-05-07T08:19:54;22.60;68.10
40738;DHT22;54759;48.094;-1.628;2023-05-07T08:22:57;22.50;66.00
40738;DHT22;54759;48.094;-1.628;2023-05-07T08:26:01;22.30;67.90
40738;DHT22;54759;48.094;-1.628;2023-05-07T08:29:05;22.20;67.50
40738;DHT22;54759;48.094;-1.628;2023-05-07T08:32:09;22.50;68.00
40738;DHT22;54759;48.094;-1.628;2023-05-07T08:35:11;22.50;68.00
40738;DHT22;54759;48.094;-1.628;2023-05-07T08:38:13;22.50;67.90
40738;DHT22;54759;48.094;-1.628;2023-05-07T08:41:15;22.50;67.40
40738;DHT22;54759;48.094;-1.628;2023-05-07T08:44:22;22.40;67.70
40738;DHT22;54759;48.094;-1.628;2023-05-07T08:47:31;22.40;67.60
40738;DHT22;54759;48.094;-1.628;2023-05-07T08:50:38;22.50;67.50
40738;DHT22;54759;48.094;-1.628;2023-05-07T08:53:41;22.50;67.40
40738;DHT22;54759;48.094;-1.628;2023-05-07T08:56:46;22.50;67.40
40738;DHT22;54759;48.094;-1.628;2023-05-07T08:59:48;22.50;67.50
40738;DHT22;54759;48.094;-1.628;2023-05-07T09:02:53;22.50;67.40
40738;DHT22;54759;48.094;-1.628;2023-05-07T09:05:54;22.50;67.00
40738;DHT22;54759;48.094;-1.628;2023-05-07T09:09:00;22.70;67.30
40738;DHT22;54759;48.094;-1.628;2023-05-07T09:12:04;22.40;66.90
40738;DHT22;54759;48.094;-1.628;2023-05-07T09:15:09;22.50;67.00
40738;DHT22;54759;48.094;-1.628;2023-05-07T09:18:13;22.70;67.00
40738;DHT22;54759;48.094;-1.628;2023-05-07T09:21:20;22.20;66.70
40738;DHT22;54759;48.094;-1.628;2023-05-07T09:24:24;22.40;66.60
40738;DHT22;54759;48.094;-1.628;2023-05-07T09:27:25;22.70;67.00
40738;DHT22;54759;48.094;-1.628;2023-05-07T09:30:29;22.30;66.50
40738;DHT22;54759;48.094;-1.628;2023-05-07T09:33:34;22.50;67.00
40738;DHT22;54759;48.094;-1.628;2023-05-07T09:36:38;22.60;66.50
40738;DHT22;54759;48.094;-1.628;2023-05-07T09:39:45;22.30;66.40
40738;DHT22;54759;48.094;-1.628;2023-05-07T09:42:50;22.40;66.10
40738;DHT22;54759;48.094;-1.628;2023-05-07T09:45:52;22.70;66.40
40738;DHT22;54759;48.094;-1.628;2023-05-07T09:48:58;22.60;66.30
40738;DHT22;54759;48.094;-1.628;2023-05-07T09:52:03;22.60;66.00
40738;DHT22;54759;48.094;-1.628;2023-05-07T09:55:09;22.70;66.00
40738;DHT22;54759;48.094;-1.628;2023-05-07T09:58:15;22.50;65.70
40738;DHT22;54759;48.094;-1.628;2023-05-07T10:01:19;22.60;65.80
40738;DHT22;54759;48.094;-1.628;2023-05-07T10:04:24;22.20;65.50
40738;DHT22;54759;48.094;-1.628;2023-05-07T10:07:26;22.80;65.80
40738;DHT22;54759;48.094;-1.628;2023-05-07T10:10:33;22.70;65.80
40738;DHT22;54759;48.094;-1.628;2023-05-07T10:13:35;22.60;65.70
40738;DHT22;54759;48.094;-1.628;2023-05-07T10:16:41;22.80;65.70
40738;DHT22;54759;48.094;-1.628;2023-05-07T10:19:49;22.40;65.30
40738;DHT22;54759;48.094;-1.628;2023-05-07T10:22:54;22.50;65.20
40738;DHT22;54759;48.094;-1.628;2023-05-07T10:26:05;22.70;65.10
40738;DHT22;54759;48.094;-1.628;2023-05-07T10:29:15;22.70;65.00
40738;DHT22;54759;48.094;-1.628;2023-05-07T10:32:33;22.80;65.10
40738;DHT22;54759;48.094;-1.628;2023-05-07T10:35:40;22.50;64.70
40738;DHT22;54759;48.094;-1.628;2023-05-07T10:38:43;22.80;64.90
40738;DHT22;54759;48.094;-1.628;2023-05-07T10:41:47;22.70;65.20
40738;DHT22;54759;48.094;-1.628;2023-05-07T10:44:49;22.70;64.70
40738;DHT22;54759;48.094;-1.628;2023-05-07T10:48:13;22.70;65.20
40738;DHT22;54759;48.094;-1.628;2023-05-07T10:51:37;22.20;64.50
40738;DHT22;54759;48.094;-1.628;2023-05-07T10:55:19;22.30;64.40
40738;DHT22;54759;48.094;-1.628;2023-05-07T10:58:33;22.80;65.10
40738;DHT22;54759;48.094;-1.628;2023-05-07T11:01:52;22.90;64.70
40738;DHT22;54759;48.094;-1.628;2023-05-07T11:05:21;22.70;64.20
40738;DHT22;54759;48.094;-1.628;2023-05-07T11:08:53;22.70;64.10
40738;DHT22;54759;48.094;-1.628;2023-05-07T11:11:58;22.70;64.10
40738;DHT22;54759;48.094;-1.628;2023-05-07T11:15:08;22.80;64.30
40738;DHT22;54759;48.094;-1.628;2023-05-07T11:18:13;22.80;64.10
40738;DHT22;54759;48.094;-1.628;2023-05-07T11:21:34;22.70;64.00
40738;DHT22;54759;48.094;-1.628;2023-05-07T11:24:46;22.30;63.70
40738;DHT22;54759;48.094;-1.628;2023-05-07T11:27:48;22.40;64.00
40738;DHT22;54759;48.094;-1.628;2023-05-07T11:30:50;22.70;64.10
40738;DHT22;54759;48.094;-1.628;2023-05-07T11:33:55;22.80;64.00
40738;DHT22;54759;48.094;-1.628;2023-05-07T11:36:58;22.80;64.00
40738;DHT22;54759;48.094;-1.628;2023-05-07T11:40:13;22.90;63.90
40738;DHT22;54759;48.094;-1.628;2023-05-07T11:43:15;22.40;63.20
40738;DHT22;54759;48.094;-1.628;2023-05-07T11:46:17;22.90;63.80
40738;DHT22;54759;48.094;-1.628;2023-05-07T11:49:18;22.80;63.40
40738;DHT22;54759;48.094;-1.628;2023-05-07T11:52:24;23.00;63.60
40738;DHT22;54759;48.094;-1.628;2023-05-07T11:55:26;22.80;63.20
40738;DHT22;54759;48.094;-1.628;2023-05-07T11:58:28;22.80;63.20
40738;DHT22;54759;48.094;-1.628;2023-05-07T12:01:29;22.90;63.30
40738;DHT22;54759;48.094;-1.628;2023-05-07T12:04:31;23.10;63.50
40738;DHT22;54759;48.094;-1.628;2023-05-07T12:07:32;22.90;63.10
40738;DHT22;54759;48.094;-1.628;2023-05-07T12:10:41;23.00;63.20
40738;DHT22;54759;48.094;-1.628;2023-05-07T12:13:43;22.90;62.80
40738;DHT22;54759;48.094;-1.628;2023-05-07T12:16:45;23.00;62.60
40738;DHT22;54759;48.094;-1.628;2023-05-07T12:19:47;23.00;62.20
40738;DHT22;54759;48.094;-1.628;2023-05-07T12:22:49;22.90;62.10
40738;DHT22;54759;48.094;-1.628;2023-05-07T12:25:53;22.80;61.80
40738;DHT22;54759;48.094;-1.628;2023-05-07T12:29:00;22.90;61.90
40738;DHT22;54759;48.094;-1.628;2023-05-07T12:32:02;23.00;60.10
40738;DHT22;54759;48.094;-1.628;2023-05-07T12:35:07;23.00;62.00
40738;DHT22;54759;48.094;-1.628;2023-05-07T12:38:13;22.60;61.50
40738;DHT22;54759;48.094;-1.628;2023-05-07T12:41:15;23.00;61.60
40738;DHT22;54759;48.094;-1.628;2023-05-07T12:44:17;23.00;61.50
40738;DHT22;54759;48.094;-1.628;2023-05-07T12:47:20;22.60;61.50
40738;DHT22;54759;48.094;-1.628;2023-05-07T12:50:23;23.00;61.40
40738;DHT22;54759;48.094;-1.628;2023-05-07T12:53:25;23.00;61.40
40738;DHT22;54759;48.094;-1.628;2023-05-07T12:56:30;23.00;61.20
40738;DHT22;54759;48.094;-1.628;2023-05-07T12:59:33;22.90;61.10
40738;DHT22;54759;48.094;-1.628;2023-05-07T13:02:38;23.00;60.90
40738;DHT22;54759;48.094;-1.628;2023-05-07T13:05:41;23.10;61.00
40738;DHT22;54759;48.094;-1.628;2023-05-07T13:08:42;23.00;60.90
40738;DHT22;54759;48.094;-1.628;2023-05-07T13:11:44;23.10;58.90
40738;DHT22;54759;48.094;-1.628;2023-05-07T13:14:46;23.10;61.00
40738;DHT22;54759;48.094;-1.628;2023-05-07T13:17:47;23.00;61.30
40738;DHT22;54759;48.094;-1.628;2023-05-07T13:20:52;23.10;61.20
40738;DHT22;54759;48.094;-1.628;2023-05-07T13:23:54;23.10;61.20
40738;DHT22;54759;48.094;-1.628;2023-05-07T13:26:56;23.20;61.30
40738;DHT22;54759;48.094;-1.628;2023-05-07T13:29:57;23.10;61.20
40738;DHT22;54759;48.094;-1.628;2023-05-07T13:32:59;23.10;60.90
40738;DHT22;54759;48.094;-1.628;2023-05-07T13:36:01;23.10;61.10
40738;DHT22;54759;48.094;-1.628;2023-05-07T13:39:03;22.70;60.80
40738;DHT22;54759;48.094;-1.628;2023-05-07T13:42:05;22.80;60.70
40738;DHT22;54759;48.094;-1.628;2023-05-07T13:45:09;23.20;61.20
40738;DHT22;54759;48.094;-1.628;2023-05-07T13:48:10;23.10;60.60
40738;DHT22;54759;48.094;-1.628;2023-05-07T13:51:12;23.20;60.60
40738;DHT22;54759;48.094;-1.628;2023-05-07T13:54:14;23.20;60.30
40738;DHT22;54759;48.094;-1.628;2023-05-07T13:57:17;23.40;60.20
40738;DHT22;54759;48.094;-1.628;2023-05-07T14:00:18;23.20;60.20
40738;DHT22;54759;48.094;-1.628;2023-05-07T14:03:20;23.30;60.10
40738;DHT22;54759;48.094;-1.628;2023-05-07T14:06:22;23.20;59.90
40738;DHT22;54759;48.094;-1.628;2023-05-07T14:09:24;22.70;59.50
40738;DHT22;54759;48.094;-1.628;2023-05-07T14:12:26;23.30;59.70
40738;DHT22;54759;48.094;-1.628;2023-05-07T14:15:28;23.40;59.60
40738;DHT22;54759;48.094;-1.628;2023-05-07T14:18:29;23.40;59.60
40738;DHT22;54759;48.094;-1.628;2023-05-07T14:21:31;23.30;59.20
40738;DHT22;54759;48.094;-1.628;2023-05-07T14:24:32;22.90;59.10
40738;DHT22;54759;48.094;-1.628;2023-05-07T14:27:40;23.30;59.20
40738;DHT22;54759;48.094;-1.628;2023-05-07T14:30:42;22.80;58.70
40738;DHT22;54759;48.094;-1.628;2023-05-07T14:33:43;23.40;59.00
40738;DHT22;54759;48.094;-1.628;2023-05-07T14:36:44;23.10;59.10
40738;DHT22;54759;48.094;-1.628;2023-05-07T14:39:46;23.50;59.10
40738;DHT22;54759;48.094;-1.628;2023-05-07T14:42:51;23.40;58.90
40738;DHT22;54759;48.094;-1.628;2023-05-07T14:45:53;23.30;58.60
40738;DHT22;54759;48.094;-1.628;2023-05-07T14:48:56;23.40;58.70
40738;DHT22;54759;48.094;-1.628;2023-05-07T14:51:58;23.40;58.50
40738;DHT22;54759;48.094;-1.628;2023-05-07T14:55:00;23.30;58.20
40738;DHT22;54759;48.094;-1.628;2023-05-07T14:58:03;23.50;58.00
40738;DHT22;54759;48.094;-1.628;2023-05-07T15:01:04;23.40;58.10
40738;DHT22;54759;48.094;-1.628;2023-05-07T15:04:06;23.60;58.30
40738;DHT22;54759;48.094;-1.628;2023-05-07T15:07:08;23.50;58.20
40738;DHT22;54759;48.094;-1.628;2023-05-07T15:10:09;23.30;58.10
40738;DHT22;54759;48.094;-1.628;2023-05-07T15:13:12;23.50;58.50
40738;DHT22;54759;48.094;-1.628;2023-05-07T15:16:17;23.60;58.20
40738;DHT22;54759;48.094;-1.628;2023-05-07T15:19:19;23.60;58.10
40738;DHT22;54759;48.094;-1.628;2023-05-07T15:22:22;23.40;57.90
40738;DHT22;54759;48.094;-1.628;2023-05-07T15:25:24;23.60;58.20
40738;DHT22;54759;48.094;-1.628;2023-05-07T15:28:26;23.40;57.90
40738;DHT22;54759;48.094;-1.628;2023-05-07T15:31:31;23.30;58.00
40738;DHT22;54759;48.094;-1.628;2023-05-07T15:34:35;23.70;57.80
40738;DHT22;54759;48.094;-1.628;2023-05-07T15:37:37;23.10;58.10
40738;DHT22;54759;48.094;-1.628;2023-05-07T15:40:38;23.60;58.30
40738;DHT22;54759;48.094;-1.628;2023-05-07T15:43:48;23.20;57.40
40738;DHT22;54759;48.094;-1.628;2023-05-07T15:46:50;23.50;57.20
40738;DHT22;54759;48.094;-1.628;2023-05-07T15:49:52;23.70;58.10
40738;DHT22;54759;48.094;-1.628;2023-05-07T15:52:53;23.70;57.30
40738;DHT22;54759;48.094;-1.628;2023-05-07T15:55:55;23.60;57.10
40738;DHT22;54759;48.094;-1.628;2023-05-07T15:58:57;23.70;57.00
40738;DHT22;54759;48.094;-1.628;2023-05-07T16:01:59;23.70;56.90
40738;DHT22;54759;48.094;-1.628;2023-05-07T16:05:01;23.70;56.60
40738;DHT22;54759;48.094;-1.628;2023-05-07T16:08:03;23.40;56.40
40738;DHT22;54759;48.094;-1.628;2023-05-07T16:11:05;23.70;56.40
40738;DHT22;54759;48.094;-1.628;2023-05-07T16:14:07;23.40;56.30
40738;DHT22;54759;48.094;-1.628;2023-05-07T16:17:08;23.70;56.10
40738;DHT22;54759;48.094;-1.628;2023-05-07T16:20:13;23.80;56.50
40738;DHT22;54759;48.094;-1.628;2023-05-07T16:23:15;23.40;56.10
40738;DHT22;54759;48.094;-1.628;2023-05-07T16:26:16;23.80;56.40
40738;DHT22;54759;48.094;-1.628;2023-05-07T16:29:18;23.70;56.20
40738;DHT22;54759;48.094;-1.628;2023-05-07T16:32:23;23.20;55.80
40738;DHT22;54759;48.094;-1.628;2023-05-07T16:35:24;23.90;56.00
40738;DHT22;54759;48.094;-1.628;2023-05-07T16:38:26;23.40;55.80
40738;DHT22;54759;48.094;-1.628;2023-05-07T16:41:28;23.90;56.00
40738;DHT22;54759;48.094;-1.628;2023-05-07T16:44:32;23.40;55.70
40738;DHT22;54759;48.094;-1.628;2023-05-07T16:47:35;24.00;55.90
40738;DHT22;54759;48.094;-1.628;2023-05-07T16:50:39;23.90;55.90
40738;DHT22;54759;48.094;-1.628;2023-05-07T16:53:41;23.90;55.70
40738;DHT22;54759;48.094;-1.628;2023-05-07T16:56:42;23.90;55.70
40738;DHT22;54759;48.094;-1.628;2023-05-07T16:59:45;24.00;55.70
40738;DHT22;54759;48.094;-1.628;2023-05-07T17:02:48;24.00;53.60
40738;DHT22;54759;48.094;-1.628;2023-05-07T17:05:50;24.00;55.90
40738;DHT22;54759;48.094;-1.628;2023-05-07T17:08:52;24.00;55.70
40738;DHT22;54759;48.094;-1.628;2023-05-07T17:11:54;23.90;55.40
40738;DHT22;54759;48.094;-1.628;2023-05-07T17:14:56;23.80;55.70
40738;DHT22;54759;48.094;-1.628;2023-05-07T17:17:58;23.90;55.70
40738;DHT22;54759;48.094;-1.628;2023-05-07T17:20:59;23.20;55.40
40738;DHT22;54759;48.094;-1.628;2023-05-07T17:24:01;24.10;55.80
40738;DHT22;54759;48.094;-1.628;2023-05-07T17:27:02;23.70;55.70
40738;DHT22;54759;48.094;-1.628;2023-05-07T17:30:05;24.00;55.90
40738;DHT22;54759;48.094;-1.628;2023-05-07T17:33:07;23.90;55.60
40738;DHT22;54759;48.094;-1.628;2023-05-07T17:36:22;23.90;55.50
40738;DHT22;54759;48.094;-1.628;2023-05-07T17:39:24;23.80;55.60
40738;DHT22;54759;48.094;-1.628;2023-05-07T17:42:25;23.30;55.90
40738;DHT22;54759;48.094;-1.628;2023-05-07T17:45:29;23.90;55.70
40738;DHT22;54759;48.094;-1.628;2023-05-07T17:48:32;24.00;55.60
40738;DHT22;54759;48.094;-1.628;2023-05-07T17:51:35;24.00;55.70
40738;DHT22;54759;48.094;-1.628;2023-05-07T17:54:54;24.00;55.70
40738;DHT22;54759;48.094;-1.628;2023-05-07T17:57:56;24.00;55.60
40738;DHT22;54759;48.094;-1.628;2023-05-07T18:00:58;23.80;55.30
40738;DHT22;54759;48.094;-1.628;2023-05-07T18:03:59;23.60;55.30
40738;DHT22;54759;48.094;-1.628;2023-05-07T18:07:01;24.00;55.50
40738;DHT22;54759;48.094;-1.628;2023-05-07T18:10:03;24.10;55.50
40738;DHT22;54759;48.094;-1.628;2023-05-07T18:13:05;23.90;54.70
40738;DHT22;54759;48.094;-1.628;2023-05-07T18:16:08;23.50;55.10
40738;DHT22;54759;48.094;-1.628;2023-05-07T18:19:10;23.90;55.30
40738;DHT22;54759;48.094;-1.628;2023-05-07T18:22:12;24.10;55.30
40738;DHT22;54759;48.094;-1.628;2023-05-07T18:25:13;24.00;55.20
40738;DHT22;54759;48.094;-1.628;2023-05-07T18:28:14;24.00;55.30
40738;DHT22;54759;48.094;-1.628;2023-05-07T18:31:19;24.00;55.20
40738;DHT22;54759;48.094;-1.628;2023-05-07T18:34:21;23.40;54.80
40738;DHT22;54759;48.094;-1.628;2023-05-07T18:37:23;23.90;55.00
40738;DHT22;54759;48.094;-1.628;2023-05-07T18:40:30;23.90;55.00
40738;DHT22;54759;48.094;-1.628;2023-05-07T18:43:32;23.50;54.90
40738;DHT22;54759;48.094;-1.628;2023-05-07T18:46:40;24.00;55.20
40738;DHT22;54759;48.094;-1.628;2023-05-07T18:49:44;24.00;52.70
40738;DHT22;54759;48.094;-1.628;2023-05-07T18:52:45;24.00;55.10
40738;DHT22;54759;48.094;-1.628;2023-05-07T18:55:49;23.90;55.20
40738;DHT22;54759;48.094;-1.628;2023-05-07T18:58:50;23.90;55.10
40738;DHT22;54759;48.094;-1.628;2023-05-07T19:01:52;23.40;54.70